sensor_id;sensor_type;location;lat;lon;timestamp;pressure;altitude;pressure_sealevel;temperature;humidity
72024;BME280;59889;50.700;5.440;2023-02-12T00:00:37;102224.17;;;20.10;34.05
72024;BME280;59889;50.700;5.440;2023-02-12T00:03:02;102221.90;;;19.79;34.15
72024;BME280;59889;50.700;5.440;2023-02-12T00:05:26;102221.66;;;20.16;33.97
72024;BME280;59889;50.700;5.440;2023-02-12T00:07:52;102223.12;;;20.30;33.78
72024;BME280;59889;50.700;5.440;2023-02-12T00:10:17;102222.21;;;20.16;33.97
72024;BME280;59889;50.700;5.440;2023-02-12T00:12:42;102220.87;;;19.84;34.07
72024;BME280;59889;50.700;5.440;2023-02-12T00:15:08;102219.73;;;20.00;33.86
72024;BME280;59889;50.700;5.440;2023-02-12T00:17:32;102219.41;;;20.00;33.83
72024;BME280;59889;50.700;5.440;2023-02-12T00:19:57;102218.20;;;19.78;33.81
72024;BME280;59889;50.700;5.440;2023-02-12T00:22:22;102215.08;;;20.06;34.08
72024;BME280;59889;50.700;5.440;2023-02-12T00:24:47;102213.20;;;20.37;34.02
72024;BME280;59889;50.700;5.440;2023-02-12T00:27:13;102213.76;;;19.80;34.10
72024;BME280;59889;50.700;5.440;2023-02-12T00:29:38;102214.27;;;19.90;33.97
72024;BME280;59889;50.700;5.440;2023-02-12T00:32:03;102215.15;;;19.93;33.97
72024;BME280;59889;50.700;5.440;2023-02-12T00:34:28;102213.15;;;20.04;33.83
72024;BME280;59889;50.700;5.440;2023-02-12T00:36:53;102215.98;;;19.80;34.14
72024;BME280;59889;50.700;5.440;2023-02-12T00:39:18;102210.61;;;19.86;34.01
72024;BME280;59889;50.700;5.440;2023-02-12T00:41:43;102211.97;;;20.07;34.05
72024;BME280;59889;50.700;5.440;2023-02-12T00:44:08;102209.73;;;19.63;34.36
72024;BME280;59889;50.700;5.440;2023-02-12T00:46:34;102209.62;;;20.21;33.91
72024;BME280;59889;50.700;5.440;2023-02-12T00:48:59;102208.74;;;19.77;34.16
72024;BME280;59889;50.700;5.440;2023-02-12T00:51:24;102210.93;;;20.30;33.80
72024;BME280;59889;50.700;5.440;2023-02-12T00:53:49;102217.93;;;20.13;34.03
72024;BME280;59889;50.700;5.440;2023-02-12T00:56:14;102216.40;;;19.82;34.11
72024;BME280;59889;50.700;5.440;2023-02-12T00:58:39;102212.08;;;19.99;33.87
72024;BME280;59889;50.700;5.440;2023-02-12T01:01:05;102210.63;;;19.96;34.22
72024;BME280;59889;50.700;5.440;2023-02-12T01:03:30;102211.46;;;20.03;34.14
72024;BME280;59889;50.700;5.440;2023-02-12T01:05:55;102211.08;;;19.32;34.44
72024;BME280;59889;50.700;5.440;2023-02-12T01:08:21;102211.74;;;19.74;34.24
72024;BME280;59889;50.700;5.440;2023-02-12T01:10:54;102215.60;;;19.58;34.37
72024;BME280;59889;50.700;5.440;2023-02-12T01:13:12;102217.31;;;20.04;34.16
72024;BME280;59889;50.700;5.440;2023-02-12T01:15:37;102213.88;;;20.18;33.95
72024;BME280;59889;50.700;5.440;2023-02-12T01:18:02;102214.57;;;19.57;34.38
72024;BME280;59889;50.700;5.440;2023-02-12T01:20:27;102216.44;;;20.08;34.10
72024;BME280;59889;50.700;5.440;2023-02-12T01:22:52;102214.85;;;20.11;34.07
72024;BME280;59889;50.700;5.440;2023-02-12T01:25:17;102211.57;;;19.93;34.26
72024;BME280;59889;50.700;5.440;2023-02-12T01:27:42;102210.68;;;19.85;34.11
72024;BME280;59889;50.700;5.440;2023-02-12T01:30:11;102207.75;;;19.76;34.19
72024;BME280;59889;50.700;5.440;2023-02-12T01:32:33;102203.36;;;19.67;34.33
72024;BME280;59889;50.700;5.440;2023-02-12T01:34:57;102205.50;;;19.92;34.31
72024;BME280;59889;50.700;5.440;2023-02-12T01:37:23;102206.10;;;19.96;34.24
72024;BME280;59889;50.700;5.440;2023-02-12T01:39:48;102203.94;;;19.79;34.19
72024;BME280;59889;50.700;5.440;2023-02-12T01:42:14;102199.94;;;19.39;34.36
72024;BME280;59889;50.700;5.440;2023-02-12T01:44:43;102200.65;;;20.11;34.09
72024;BME280;59889;50.700;5.440;2023-02-12T01:47:05;102201.98;;;19.82;34.14
72024;BME280;59889;50.700;5.440;2023-02-12T01:49:33;102200.82;;;19.96;34.23
72024;BME280;59889;50.700;5.440;2023-02-12T01:51:59;102200.19;;;19.99;33.86
72024;BME280;59889;50.700;5.440;2023-02-12T01:54:21;102199.93;;;19.79;34.15
72024;BME280;59889;50.700;5.440;2023-02-12T01:56:45;102193.98;;;20.14;34.04
72024;BME280;59889;50.700;5.440;2023-02-12T01:59:11;102189.09;;;20.13;34.06
72024;BME280;59889;50.700;5.440;2023-02-12T02:01:36;102187.72;;;19.76;34.20
72024;BME280;59889;50.700;5.440;2023-02-12T02:04:04;102187.70;;;19.90;33.98
72024;BME280;59889;50.700;5.440;2023-02-12T02:06:30;102187.06;;;19.94;33.98
72024;BME280;59889;50.700;5.440;2023-02-12T02:08:51;102186.24;;;20.14;34.01
72024;BME280;59889;50.700;5.440;2023-02-12T02:11:16;102187.41;;;19.98;34.19
72024;BME280;59889;50.700;5.440;2023-02-12T02:13:41;102185.53;;;19.92;33.99
72024;BME280;59889;50.700;5.440;2023-02-12T02:16:13;102184.91;;;19.87;34.07
72024;BME280;59889;50.700;5.440;2023-02-12T02:18:36;102180.47;;;20.18;33.96
72024;BME280;59889;50.700;5.440;2023-02-12T02:21:19;102181.62;;;19.56;34.13
72024;BME280;59889;50.700;5.440;2023-02-12T02:23:37;102184.20;;;19.96;34.27
72024;BME280;59889;50.700;5.440;2023-02-12T02:26:00;102185.14;;;19.81;34.16
72024;BME280;59889;50.700;5.440;2023-02-12T02:28:30;102182.78;;;19.86;34.09
72024;BME280;59889;50.700;5.440;2023-02-12T02:30:42;102184.50;;;19.73;34.21
72024;BME280;59889;50.700;5.440;2023-02-12T02:33:15;102183.30;;;19.78;34.20
72024;BME280;59889;50.700;5.440;2023-02-12T02:35:35;102184.70;;;19.95;34.26
72024;BME280;59889;50.700;5.440;2023-02-12T02:38:05;102189.78;;;20.02;34.14
72024;BME280;59889;50.700;5.440;2023-02-12T02:40:21;102187.50;;;19.67;34.32
72024;BME280;59889;50.700;5.440;2023-02-12T02:42:47;102182.81;;;19.87;34.09
72024;BME280;59889;50.700;5.440;2023-02-12T02:45:12;102180.23;;;19.88;34.04
72024;BME280;59889;50.700;5.440;2023-02-12T02:47:39;102179.00;;;20.02;34.18
72024;BME280;59889;50.700;5.440;2023-02-12T02:50:03;102172.24;;;19.79;34.12
72024;BME280;59889;50.700;5.440;2023-02-12T02:52:30;102172.24;;;19.48;34.21
72024;BME280;59889;50.700;5.440;2023-02-12T02:54:54;102168.30;;;19.85;34.13
72024;BME280;59889;50.700;5.440;2023-02-12T02:57:19;102170.49;;;19.65;34.38
72024;BME280;59889;50.700;5.440;2023-02-12T02:59:44;102166.52;;;19.75;34.22
72024;BME280;59889;50.700;5.440;2023-02-12T03:02:11;102164.93;;;19.77;34.18
72024;BME280;59889;50.700;5.440;2023-02-12T03:04:34;102168.34;;;20.00;34.26
72024;BME280;59889;50.700;5.440;2023-02-12T03:07:01;102168.12;;;19.45;34.00
72024;BME280;59889;50.700;5.440;2023-02-12T03:09:26;102174.03;;;19.94;33.98
72024;BME280;59889;50.700;5.440;2023-02-12T03:11:47;102178.04;;;19.80;34.16
72024;BME280;59889;50.700;5.440;2023-02-12T03:14:15;102178.89;;;19.73;34.23
72024;BME280;59889;50.700;5.440;2023-02-12T03:16:40;102181.53;;;19.84;34.09
72024;BME280;59889;50.700;5.440;2023-02-12T03:19:07;102175.70;;;20.08;34.13
72024;BME280;59889;50.700;5.440;2023-02-12T03:21:32;102177.49;;;19.74;34.25
72024;BME280;59889;50.700;5.440;2023-02-12T03:23:59;102179.43;;;19.78;34.23
72024;BME280;59889;50.700;5.440;2023-02-12T03:26:21;102178.54;;;19.90;34.08
72024;BME280;59889;50.700;5.440;2023-02-12T03:28:43;102176.49;;;19.82;34.17
72024;BME280;59889;50.700;5.440;2023-02-12T03:31:11;102176.35;;;19.84;34.12
72024;BME280;59889;50.700;5.440;2023-02-12T03:33:41;102181.16;;;19.86;34.41
72024;BME280;59889;50.700;5.440;2023-02-12T03:36:04;102179.70;;;19.73;34.25
72024;BME280;59889;50.700;5.440;2023-02-12T03:38:33;102178.09;;;19.76;34.18
72024;BME280;59889;50.700;5.440;2023-02-12T03:40:54;102176.63;;;20.06;34.10
72024;BME280;59889;50.700;5.440;2023-02-12T03:43:19;102177.74;;;19.71;34.29
72024;BME280;59889;50.700;5.440;2023-02-12T03:45:45;102175.21;;;19.65;34.36
72024;BME280;59889;50.700;5.440;2023-02-12T03:48:08;102174.09;;;19.83;34.45
72024;BME280;59889;50.700;5.440;2023-02-12T03:50:35;102173.50;;;19.78;34.23
72024;BME280;59889;50.700;5.440;2023-02-12T03:52:55;102174.96;;;20.07;34.15
72024;BME280;59889;50.700;5.440;2023-02-12T03:55:20;102175.95;;;19.93;34.33
72024;BME280;59889;50.700;5.440;2023-02-12T03:57:49;102177.66;;;19.86;34.13
72024;BME280;59889;50.700;5.440;2023-02-12T04:00:15;102176.38;;;19.81;34.10
72024;BME280;59889;50.700;5.440;2023-02-12T04:02:36;102173.02;;;20.03;34.15
72024;BME280;59889;50.700;5.440;2023-02-12T04:05:04;102173.60;;;19.77;34.20
72024;BME280;59889;50.700;5.440;2023-02-12T04:07:27;102175.69;;;19.82;34.20
72024;BME280;59889;50.700;5.440;2023-02-12T04:09:52;102181.35;;;19.93;34.29
72024;BME280;59889;50.700;5.440;2023-02-12T04:12:31;102183.88;;;20.05;34.20
72024;BME280;59889;50.700;5.440;2023-02-12T04:14:47;102183.20;;;19.97;34.20
72024;BME280;59889;50.700;5.440;2023-02-12T04:17:13;102177.88;;;19.65;34.41
72024;BME280;59889;50.700;5.440;2023-02-12T04:19:39;102178.07;;;19.98;34.27
72024;BME280;59889;50.700;5.440;2023-02-12T04:22:10;102179.69;;;19.80;34.19
72024;BME280;59889;50.700;5.440;2023-02-12T04:24:28;102184.77;;;19.75;34.29
72024;BME280;59889;50.700;5.440;2023-02-12T04:26:50;102188.62;;;19.77;34.19
72024;BME280;59889;50.700;5.440;2023-02-12T04:29:17;102187.72;;;19.76;34.24
72024;BME280;59889;50.700;5.440;2023-02-12T04:31:45;102189.65;;;20.03;34.23
72024;BME280;59889;50.700;5.440;2023-02-12T04:34:08;102187.91;;;19.82;34.17
72024;BME280;59889;50.700;5.440;2023-02-12T04:36:33;102188.65;;;20.16;34.08
72024;BME280;59889;50.700;5.440;2023-02-12T04:38:58;102194.09;;;19.76;34.16
72024;BME280;59889;50.700;5.440;2023-02-12T04:41:20;102195.24;;;20.04;34.17
72024;BME280;59889;50.700;5.440;2023-02-12T04:43:45;102194.09;;;19.67;34.30
72024;BME280;59889;50.700;5.440;2023-02-12T04:46:10;102193.43;;;19.70;34.34
72024;BME280;59889;50.700;5.440;2023-02-12T04:48:48;102191.51;;;19.81;34.46
72024;BME280;59889;50.700;5.440;2023-02-12T04:51:00;102188.78;;;19.81;34.15
72024;BME280;59889;50.700;5.440;2023-02-12T04:53:25;102194.10;;;19.68;34.30
72024;BME280;59889;50.700;5.440;2023-02-12T04:55:50;102197.48;;;19.77;34.30
72024;BME280;59889;50.700;5.440;2023-02-12T04:58:16;102200.21;;;19.79;34.18
72024;BME280;59889;50.700;5.440;2023-02-12T05:00:41;102200.50;;;20.03;34.15
72024;BME280;59889;50.700;5.440;2023-02-12T05:03:06;102200.39;;;19.63;34.37
72024;BME280;59889;50.700;5.440;2023-02-12T05:05:31;102200.33;;;20.01;34.23
72024;BME280;59889;50.700;5.440;2023-02-12T05:07:57;102198.42;;;19.18;34.30
72024;BME280;59889;50.700;5.440;2023-02-12T05:10:22;102197.59;;;19.93;34.34
72024;BME280;59889;50.700;5.440;2023-02-12T05:12:50;102199.16;;;19.95;34.25
72024;BME280;59889;50.700;5.440;2023-02-12T05:15:13;102203.50;;;19.77;34.18
72024;BME280;59889;50.700;5.440;2023-02-12T05:17:38;102201.75;;;19.88;34.34
72024;BME280;59889;50.700;5.440;2023-02-12T05:20:04;102201.98;;;19.65;34.38
72024;BME280;59889;50.700;5.440;2023-02-12T05:22:28;102200.37;;;19.75;34.49
72024;BME280;59889;50.700;5.440;2023-02-12T05:25:00;102198.83;;;19.87;34.40
72024;BME280;59889;50.700;5.440;2023-02-12T05:27:19;102201.21;;;19.62;34.37
72024;BME280;59889;50.700;5.440;2023-02-12T05:29:44;102203.05;;;19.64;34.33
72024;BME280;59889;50.700;5.440;2023-02-12T05:32:09;102204.06;;;19.76;34.17
72024;BME280;59889;50.700;5.440;2023-02-12T05:34:35;102203.40;;;19.92;34.36
72024;BME280;59889;50.700;5.440;2023-02-12T05:37:00;102200.97;;;19.77;34.28
72024;BME280;59889;50.700;5.440;2023-02-12T05:39:25;102198.22;;;20.18;34.26
72024;BME280;59889;50.700;5.440;2023-02-12T05:41:50;102204.15;;;19.63;34.37
72024;BME280;59889;50.700;5.440;2023-02-12T05:44:15;102207.20;;;19.33;34.75
72024;BME280;59889;50.700;5.440;2023-02-12T05:46:41;102208.34;;;19.60;34.44
72024;BME280;59889;50.700;5.440;2023-02-12T05:49:06;102210.93;;;19.68;34.31
72024;BME280;59889;50.700;5.440;2023-02-12T05:51:31;102212.59;;;19.76;34.46
72024;BME280;59889;50.700;5.440;2023-02-12T05:53:58;102213.09;;;19.77;34.16
72024;BME280;59889;50.700;5.440;2023-02-12T05:56:23;102212.16;;;19.69;34.27
72024;BME280;59889;50.700;5.440;2023-02-12T05:58:50;102214.14;;;19.71;34.29
72024;BME280;59889;50.700;5.440;2023-02-12T06:01:13;102211.93;;;19.96;34.28
72024;BME280;59889;50.700;5.440;2023-02-12T06:03:36;102211.24;;;20.02;34.18
72024;BME280;59889;50.700;5.440;2023-02-12T06:06:02;102211.66;;;19.45;34.58
72024;BME280;59889;50.700;5.440;2023-02-12T06:08:27;102212.00;;;19.45;34.56
72024;BME280;59889;50.700;5.440;2023-02-12T06:10:52;102209.54;;;19.87;34.41
72024;BME280;59889;50.700;5.440;2023-02-12T06:13:17;102206.84;;;19.94;34.27
72024;BME280;59889;50.700;5.440;2023-02-12T06:15:42;102210.33;;;19.87;34.36
72024;BME280;59889;50.700;5.440;2023-02-12T06:18:08;102215.09;;;19.58;34.45
72024;BME280;59889;50.700;5.440;2023-02-12T06:20:32;102217.95;;;19.90;34.33
72024;BME280;59889;50.700;5.440;2023-02-12T06:22:57;102215.87;;;19.20;34.33
72024;BME280;59889;50.700;5.440;2023-02-12T06:25:22;102214.78;;;19.90;34.35
72024;BME280;59889;50.700;5.440;2023-02-12T06:27:48;102217.63;;;20.05;34.13
72024;BME280;59889;50.700;5.440;2023-02-12T06:30:14;102218.11;;;19.76;34.23
72024;BME280;59889;50.700;5.440;2023-02-12T06:32:38;102216.05;;;19.66;34.49
72024;BME280;59889;50.700;5.440;2023-02-12T06:35:04;102214.18;;;19.38;35.41
72024;BME280;59889;50.700;5.440;2023-02-12T06:37:29;102215.07;;;19.43;35.64
72024;BME280;59889;50.700;5.440;2023-02-12T06:39:54;102221.26;;;19.44;35.52
72024;BME280;59889;50.700;5.440;2023-02-12T06:42:20;102222.48;;;19.08;35.58
72024;BME280;59889;50.700;5.440;2023-02-12T06:44:45;102219.56;;;19.68;35.38
72024;BME280;59889;50.700;5.440;2023-02-12T06:47:11;102218.87;;;19.39;35.29
72024;BME280;59889;50.700;5.440;2023-02-12T06:49:36;102218.44;;;19.47;35.11
72024;BME280;59889;50.700;5.440;2023-02-12T06:52:02;102222.77;;;19.44;35.07
72024;BME280;59889;50.700;5.440;2023-02-12T06:54:27;102230.78;;;19.05;35.20
72024;BME280;59889;50.700;5.440;2023-02-12T06:56:53;102234.92;;;19.22;35.19
72024;BME280;59889;50.700;5.440;2023-02-12T06:59:19;102232.64;;;19.36;35.25
72024;BME280;59889;50.700;5.440;2023-02-12T07:01:45;102231.13;;;19.13;35.21
72024;BME280;59889;50.700;5.440;2023-02-12T07:04:10;102233.07;;;19.41;35.05
72024;BME280;59889;50.700;5.440;2023-02-12T07:06:36;102236.66;;;19.21;34.95
72024;BME280;59889;50.700;5.440;2023-02-12T07:09:03;102240.14;;;19.09;35.07
72024;BME280;59889;50.700;5.440;2023-02-12T07:11:29;102238.89;;;18.91;34.89
72024;BME280;59889;50.700;5.440;2023-02-12T07:13:53;102234.58;;;18.67;35.15
72024;BME280;59889;50.700;5.440;2023-02-12T07:16:18;102242.62;;;19.43;34.77
72024;BME280;59889;50.700;5.440;2023-02-12T07:18:43;102243.74;;;18.96;34.96
72024;BME280;59889;50.700;5.440;2023-02-12T07:21:10;102246.07;;;18.96;34.65
72024;BME280;59889;50.700;5.440;2023-02-12T07:23:35;102242.96;;;18.98;34.87
72024;BME280;59889;50.700;5.440;2023-02-12T07:26:01;102247.32;;;18.62;34.94
72024;BME280;59889;50.700;5.440;2023-02-12T07:28:24;102254.87;;;19.31;34.66
72024;BME280;59889;50.700;5.440;2023-02-12T07:30:50;102259.60;;;19.09;34.31
72024;BME280;59889;50.700;5.440;2023-02-12T07:33:15;102257.91;;;18.99;34.93
72024;BME280;59889;50.700;5.440;2023-02-12T07:35:41;102262.59;;;19.31;34.59
72024;BME280;59889;50.700;5.440;2023-02-12T07:38:06;102263.99;;;19.07;34.49
72024;BME280;59889;50.700;5.440;2023-02-12T07:40:32;102263.46;;;19.29;34.49
72024;BME280;59889;50.700;5.440;2023-02-12T07:42:57;102262.18;;;18.72;34.57
72024;BME280;59889;50.700;5.440;2023-02-12T07:45:23;102265.10;;;18.90;34.33
72024;BME280;59889;50.700;5.440;2023-02-12T07:47:49;102268.13;;;18.88;34.30
72024;BME280;59889;50.700;5.440;2023-02-12T07:50:14;102265.15;;;19.23;34.43
72024;BME280;59889;50.700;5.440;2023-02-12T07:52:40;102264.31;;;19.16;34.52
72024;BME280;59889;50.700;5.440;2023-02-12T07:55:06;102264.28;;;18.86;34.26
72024;BME280;59889;50.700;5.440;2023-02-12T07:57:31;102263.38;;;19.25;34.37
72024;BME280;59889;50.700;5.440;2023-02-12T07:59:57;102267.90;;;18.69;34.14
72024;BME280;59889;50.700;5.440;2023-02-12T08:02:22;102268.15;;;18.80;34.61
72024;BME280;59889;50.700;5.440;2023-02-12T08:04:48;102263.24;;;18.85;34.56
72024;BME280;59889;50.700;5.440;2023-02-12T08:07:13;102265.68;;;19.41;34.14
72024;BME280;59889;50.700;5.440;2023-02-12T08:09:38;102265.88;;;19.42;33.78
72024;BME280;59889;50.700;5.440;2023-02-12T08:12:04;102265.87;;;19.10;34.70
72024;BME280;59889;50.700;5.440;2023-02-12T08:14:30;102268.40;;;19.04;34.61
72024;BME280;59889;50.700;5.440;2023-02-12T08:16:55;102270.66;;;19.40;34.63
72024;BME280;59889;50.700;5.440;2023-02-12T08:19:21;102270.31;;;19.34;34.75
72024;BME280;59889;50.700;5.440;2023-02-12T08:21:48;102269.90;;;19.52;34.63
72024;BME280;59889;50.700;5.440;2023-02-12T08:24:12;102269.74;;;19.26;34.68
72024;BME280;59889;50.700;5.440;2023-02-12T08:26:38;102269.67;;;19.15;35.17
72024;BME280;59889;50.700;5.440;2023-02-12T08:29:05;102269.55;;;18.89;35.23
72024;BME280;59889;50.700;5.440;2023-02-12T08:31:29;102268.67;;;19.58;34.70
72024;BME280;59889;50.700;5.440;2023-02-12T08:33:54;102270.65;;;19.01;35.41
72024;BME280;59889;50.700;5.440;2023-02-12T08:36:20;102273.23;;;19.42;34.99
72024;BME280;59889;50.700;5.440;2023-02-12T08:38:45;102272.13;;;19.63;34.82
72024;BME280;59889;50.700;5.440;2023-02-12T08:41:12;102274.50;;;19.69;34.78
72024;BME280;59889;50.700;5.440;2023-02-12T08:43:38;102273.28;;;19.36;34.93
72024;BME280;59889;50.700;5.440;2023-02-12T08:46:02;102274.48;;;18.84;35.28
72024;BME280;59889;50.700;5.440;2023-02-12T08:48:26;102277.15;;;19.29;35.18
72024;BME280;59889;50.700;5.440;2023-02-12T08:50:52;102278.82;;;19.24;35.52
72024;BME280;59889;50.700;5.440;2023-02-12T08:53:17;102281.14;;;18.52;35.89
72024;BME280;59889;50.700;5.440;2023-02-12T08:55:47;102275.98;;;19.65;35.12
72024;BME280;59889;50.700;5.440;2023-02-12T08:58:08;102277.37;;;19.35;35.57
72024;BME280;59889;50.700;5.440;2023-02-12T09:00:33;102277.10;;;18.81;35.97
72024;BME280;59889;50.700;5.440;2023-02-12T09:02:59;102276.38;;;19.17;35.55
72024;BME280;59889;50.700;5.440;2023-02-12T09:05:24;102275.61;;;19.01;35.98
72024;BME280;59889;50.700;5.440;2023-02-12T09:07:50;102273.07;;;18.71;36.06
72024;BME280;59889;50.700;5.440;2023-02-12T09:10:15;102275.02;;;18.91;35.79
72024;BME280;59889;50.700;5.440;2023-02-12T09:12:40;102273.95;;;18.95;35.66
72024;BME280;59889;50.700;5.440;2023-02-12T09:15:06;102274.42;;;19.26;35.36
72024;BME280;59889;50.700;5.440;2023-02-12T09:17:31;102276.51;;;19.50;35.33
72024;BME280;59889;50.700;5.440;2023-02-12T09:19:57;102280.16;;;18.72;35.67
72024;BME280;59889;50.700;5.440;2023-02-12T09:22:22;102280.64;;;19.36;35.45
72024;BME280;59889;50.700;5.440;2023-02-12T09:24:48;102273.40;;;19.41;35.00
72024;BME280;59889;50.700;5.440;2023-02-12T09:27:13;102272.03;;;19.32;35.43
72024;BME280;59889;50.700;5.440;2023-02-12T09:29:39;102272.01;;;19.65;34.95
72024;BME280;59889;50.700;5.440;2023-02-12T09:32:05;102275.84;;;19.57;35.00
72024;BME280;59889;50.700;5.440;2023-02-12T09:34:33;102276.87;;;18.82;35.62
72024;BME280;59889;50.700;5.440;2023-02-12T09:36:56;102274.19;;;18.80;35.37
72024;BME280;59889;50.700;5.440;2023-02-12T09:39:21;102271.10;;;18.95;35.51
72024;BME280;59889;50.700;5.440;2023-02-12T09:42:09;102272.79;;;19.18;35.15
72024;BME280;59889;50.700;5.440;2023-02-12T09:44:18;102274.03;;;18.96;35.36
72024;BME280;59889;50.700;5.440;2023-02-12T09:46:42;102280.48;;;19.27;34.98
72024;BME280;59889;50.700;5.440;2023-02-12T09:49:07;102279.13;;;19.29;34.99
72024;BME280;59889;50.700;5.440;2023-02-12T09:51:29;102278.22;;;19.39;34.93
72024;BME280;59889;50.700;5.440;2023-02-12T09:54:02;102280.36;;;19.22;35.43
72024;BME280;59889;50.700;5.440;2023-02-12T09:56:21;102284.73;;;19.61;35.03
72024;BME280;59889;50.700;5.440;2023-02-12T09:58:49;102290.87;;;19.39;35.31
72024;BME280;59889;50.700;5.440;2023-02-12T10:01:12;102292.06;;;19.29;35.22
72024;BME280;59889;50.700;5.440;2023-02-12T10:03:37;102292.33;;;19.56;35.73
72024;BME280;59889;50.700;5.440;2023-02-12T10:06:05;102289.98;;;19.49;35.62
72024;BME280;59889;50.700;5.440;2023-02-12T10:08:38;102289.64;;;19.27;36.32
72024;BME280;59889;50.700;5.440;2023-02-12T10:11:00;102292.70;;;19.35;36.07
72024;BME280;59889;50.700;5.440;2023-02-12T10:13:30;102294.42;;;19.34;36.36
72024;BME280;59889;50.700;5.440;2023-02-12T10:15:50;102295.83;;;19.41;36.38
72024;BME280;59889;50.700;5.440;2023-02-12T10:18:24;102294.68;;;19.55;35.79
72024;BME280;59889;50.700;5.440;2023-02-12T10:20:51;102295.80;;;19.44;36.26
72024;BME280;59889;50.700;5.440;2023-02-12T10:23:14;102297.13;;;19.68;36.15
72024;BME280;59889;50.700;5.440;2023-02-12T10:25:32;102296.92;;;19.06;36.63
72024;BME280;59889;50.700;5.440;2023-02-12T10:27:54;102300.63;;;19.43;36.53
72024;BME280;59889;50.700;5.440;2023-02-12T10:30:20;102300.19;;;19.23;36.46
72024;BME280;59889;50.700;5.440;2023-02-12T10:32:45;102301.40;;;19.27;36.88
72024;BME280;59889;50.700;5.440;2023-02-12T10:35:12;102301.61;;;19.34;36.66
72024;BME280;59889;50.700;5.440;2023-02-12T10:37:39;102302.19;;;19.10;36.76
72024;BME280;59889;50.700;5.440;2023-02-12T10:40:04;102300.62;;;19.15;36.72
72024;BME280;59889;50.700;5.440;2023-02-12T10:42:35;102299.95;;;19.53;36.20
72024;BME280;59889;50.700;5.440;2023-02-12T10:44:51;102303.04;;;19.81;35.84
72024;BME280;59889;50.700;5.440;2023-02-12T10:47:19;102302.44;;;19.75;35.97
72024;BME280;59889;50.700;5.440;2023-02-12T10:49:43;102304.75;;;20.05;35.93
72024;BME280;59889;50.700;5.440;2023-02-12T10:52:11;102305.22;;;19.20;37.02
72024;BME280;59889;50.700;5.440;2023-02-12T10:54:36;102303.99;;;19.13;36.72
72024;BME280;59889;50.700;5.440;2023-02-12T10:57:05;102303.74;;;19.08;37.02
72024;BME280;59889;50.700;5.440;2023-02-12T10:59:25;102298.72;;;19.24;37.11
72024;BME280;59889;50.700;5.440;2023-02-12T11:01:50;102293.92;;;19.40;36.50
72024;BME280;59889;50.700;5.440;2023-02-12T11:04:24;102294.03;;;19.58;36.60
72024;BME280;59889;50.700;5.440;2023-02-12T11:09:17;102289.57;;;19.41;36.52
72024;BME280;59889;50.700;5.440;2023-02-12T11:11:37;102286.62;;;19.55;36.41
72024;BME280;59889;50.700;5.440;2023-02-12T11:14:00;102283.56;;;19.38;36.38
72024;BME280;59889;50.700;5.440;2023-02-12T11:16:28;102280.32;;;19.75;36.38
72024;BME280;59889;50.700;5.440;2023-02-12T11:18:56;102279.53;;;19.85;36.29
72024;BME280;59889;50.700;5.440;2023-02-12T11:21:14;102281.24;;;19.61;36.49
72024;BME280;59889;50.700;5.440;2023-02-12T11:23:40;102275.71;;;20.13;36.51
72024;BME280;59889;50.700;5.440;2023-02-12T11:26:06;102273.38;;;19.94;36.56
72024;BME280;59889;50.700;5.440;2023-02-12T11:28:31;102271.90;;;19.97;37.11
72024;BME280;59889;50.700;5.440;2023-02-12T11:30:57;102268.24;;;20.19;36.82
72024;BME280;59889;50.700;5.440;2023-02-12T11:33:26;102266.59;;;19.63;37.06
72024;BME280;59889;50.700;5.440;2023-02-12T11:35:49;102264.01;;;19.55;37.46
72024;BME280;59889;50.700;5.440;2023-02-12T11:38:19;102260.44;;;19.42;37.77
72024;BME280;59889;50.700;5.440;2023-02-12T11:40:37;102255.99;;;19.89;37.38
72024;BME280;59889;50.700;5.440;2023-02-12T11:43:05;102253.87;;;19.49;37.75
72024;BME280;59889;50.700;5.440;2023-02-12T11:45:33;102248.13;;;19.69;37.86
72024;BME280;59889;50.700;5.440;2023-02-12T11:47:54;102242.69;;;19.75;37.41
72024;BME280;59889;50.700;5.440;2023-02-12T11:50:24;102237.87;;;19.39;37.93
72024;BME280;59889;50.700;5.440;2023-02-12T11:52:48;102235.89;;;19.93;37.75
72024;BME280;59889;50.700;5.440;2023-02-12T11:55:18;102233.74;;;19.58;37.73
72024;BME280;59889;50.700;5.440;2023-02-12T11:57:38;102234.33;;;19.66;37.52
72024;BME280;59889;50.700;5.440;2023-02-12T12:00:04;102232.76;;;19.56;37.66
72024;BME280;59889;50.700;5.440;2023-02-12T12:02:31;102231.89;;;19.96;37.82
72024;BME280;59889;50.700;5.440;2023-02-12T12:05:05;102233.16;;;19.48;37.88
72024;BME280;59889;50.700;5.440;2023-02-12T12:07:20;102230.27;;;19.36;37.99
72024;BME280;59889;50.700;5.440;2023-02-12T12:09:47;102227.13;;;19.86;37.73
72024;BME280;59889;50.700;5.440;2023-02-12T12:12:14;102225.51;;;19.32;38.04
72024;BME280;59889;50.700;5.440;2023-02-12T12:14:38;102221.36;;;19.27;38.08
72024;BME280;59889;50.700;5.440;2023-02-12T12:17:03;102217.37;;;19.82;37.64
72024;BME280;59889;50.700;5.440;2023-02-12T12:19:31;102215.72;;;20.00;37.70
72024;BME280;59889;50.700;5.440;2023-02-12T12:21:57;102216.56;;;19.63;37.40
72024;BME280;59889;50.700;5.440;2023-02-12T12:24:22;102213.98;;;19.69;37.71
72024;BME280;59889;50.700;5.440;2023-02-12T12:26:48;102214.19;;;19.60;37.74
72024;BME280;59889;50.700;5.440;2023-02-12T12:29:15;102212.24;;;19.63;37.36
72024;BME280;59889;50.700;5.440;2023-02-12T12:31:37;102211.20;;;19.79;37.21
72024;BME280;59889;50.700;5.440;2023-02-12T12:34:06;102205.92;;;19.34;37.43
72024;BME280;59889;50.700;5.440;2023-02-12T12:38:55;102200.82;;;19.86;37.44
72024;BME280;59889;50.700;5.440;2023-02-12T12:41:24;102199.76;;;19.34;37.63
72024;BME280;59889;50.700;5.440;2023-02-12T12:43:50;102201.36;;;19.60;37.72